Time;durP1;ratioP1;P1;durP2;ratioP2;P2;SDS_P1;SDS_P2;PMS_P1;PMS_P2;Temp;Humidity;BMP_temperature;BMP_pressure;BME280_temperature;BME280_humidity;BME280_pressure;Samples;Min_cycle;Max_cycle;Signal;HPM_P1;HPM_P2
2021/10/22 00:01:24;;;;;;;1.50;1.20;;;9.20;98.00;;;;;;5051705;28;20502;-68
2021/10/22 00:03:51;;;;;;;1.20;0.97;;;9.10;98.00;;;;;;5053745;28;20520;-68
2021/10/22 00:06:18;;;;;;;1.20;1.00;;;9.20;98.00;;;;;;5053567;28;20449;-68
2021/10/22 00:08:45;;;;;;;1.20;1.00;;;9.40;98.00;;;;;;5053683;28;20466;-68
2021/10/22 00:11:15;;;;;;;1.20;1.00;;;9.50;98.00;;;;;;5053697;28;20828;-68
2021/10/22 00:13:41;;;;;;;1.20;1.00;;;9.40;98.00;;;;;;5053644;28;20523;-68
2021/10/22 00:16:09;;;;;;;1.33;1.10;;;9.40;98.00;;;;;;5053617;28;20493;-68
2021/10/22 00:18:36;;;;;;;1.40;1.10;;;9.40;98.00;;;;;;5053500;28;20488;-68
2021/10/22 00:21:03;;;;;;;1.20;1.00;;;9.60;98.00;;;;;;5053458;28;20458;-68
2021/10/22 00:23:30;;;;;;;1.20;0.90;;;9.50;98.00;;;;;;5053386;28;20561;-68
2021/10/22 00:25:57;;;;;;;1.30;1.10;;;9.50;98.00;;;;;;5053650;28;20511;-68
2021/10/22 00:28:25;;;;;;;1.20;1.00;;;9.50;98.00;;;;;;5053394;28;20473;-68
2021/10/22 00:30:52;;;;;;;1.40;1.10;;;9.60;98.00;;;;;;5053460;28;20531;-68
2021/10/22 00:33:19;;;;;;;1.20;0.90;;;9.60;98.00;;;;;;5053142;28;20449;-68
2021/10/22 00:35:46;;;;;;;1.20;1.10;;;9.60;98.00;;;;;;5053297;28;20507;-68
2021/10/22 00:38:13;;;;;;;1.20;1.00;;;9.50;98.00;;;;;;5053022;28;20484;-68
2021/10/22 00:40:40;;;;;;;1.20;1.00;;;9.30;98.00;;;;;;5053094;28;20804;-68
2021/10/22 00:43:07;;;;;;;1.20;1.00;;;9.30;98.00;;;;;;5052786;28;20485;-68
2021/10/22 00:45:36;;;;;;;1.20;1.00;;;9.20;98.00;;;;;;5053083;28;20454;-68
2021/10/22 00:48:03;;;;;;;1.20;1.00;;;9.30;98.00;;;;;;5052918;28;20461;-68
2021/10/22 00:50:30;;;;;;;1.20;1.00;;;9.30;98.00;;;;;;5052800;28;20503;-68
2021/10/22 00:52:58;;;;;;;1.40;1.00;;;9.40;98.00;;;;;;5052667;28;20507;-68
2021/10/22 00:55:25;;;;;;;1.20;1.00;;;9.50;98.00;;;;;;5052781;28;20453;-68
2021/10/22 00:57:52;;;;;;;2.13;1.20;;;9.60;98.00;;;;;;5052751;28;20515;-68
2021/10/22 01:00:20;;;;;;;1.20;1.00;;;9.60;98.00;;;;;;5052757;28;20455;-68
2021/10/22 01:02:48;;;;;;;1.20;1.00;;;9.60;98.00;;;;;;5052783;28;20966;-68
2021/10/22 01:05:16;;;;;;;1.20;1.00;;;9.60;98.00;;;;;;5052275;28;20513;-68
2021/10/22 01:07:44;;;;;;;1.30;1.20;;;9.60;98.00;;;;;;5052457;28;20466;-68
2021/10/22 01:10:12;;;;;;;1.20;1.03;;;9.60;98.00;;;;;;5052485;28;20869;-68
2021/10/22 01:12:42;;;;;;;1.20;1.07;;;9.60;98.00;;;;;;5051700;28;20825;-68
2021/10/22 01:15:10;;;;;;;1.20;1.00;;;9.50;98.00;;;;;;5052218;28;20492;-68
2021/10/22 01:17:41;;;;;;;1.20;1.00;;;9.60;98.00;;;;;;5052289;28;20476;-68
2021/10/22 01:20:11;;;;;;;1.20;0.97;;;9.70;98.00;;;;;;5034585;28;20457;-68
2021/10/22 01:22:41;;;;;;;1.20;1.00;;;9.70;98.00;;;;;;5051262;28;20556;-68
2021/10/22 01:25:11;;;;;;;1.20;1.00;;;9.60;98.00;;;;;;5051879;28;20995;-68
2021/10/22 01:27:38;;;;;;;1.20;1.00;;;9.50;98.00;;;;;;5052215;28;20812;-68
2021/10/22 01:30:06;;;;;;;1.20;0.90;;;9.50;98.00;;;;;;5051790;28;20519;-68
2021/10/22 01:32:33;;;;;;;1.40;1.07;;;9.50;98.00;;;;;;5051924;28;20492;-68
2021/10/22 01:35:00;;;;;;;1.20;0.90;;;9.60;98.00;;;;;;5051953;28;20565;-68
2021/10/22 01:37:27;;;;;;;1.30;1.10;;;9.50;98.00;;;;;;5051973;28;20871;-68
2021/10/22 01:39:56;;;;;;;1.20;1.10;;;9.50;98.00;;;;;;5051756;28;20500;-68
2021/10/22 01:42:23;;;;;;;1.20;0.90;;;9.50;98.00;;;;;;5051946;28;20457;-68
2021/10/22 01:44:51;;;;;;;1.20;1.00;;;9.50;98.00;;;;;;5051832;28;20541;-68
2021/10/22 01:47:19;;;;;;;2.50;1.20;;;9.60;98.00;;;;;;5052105;28;20899;-68
2021/10/22 01:49:47;;;;;;;1.20;0.90;;;9.60;98.00;;;;;;5051539;28;20445;-68
2021/10/22 01:52:14;;;;;;;1.50;1.20;;;9.60;98.00;;;;;;5051892;28;20492;-68
2021/10/22 01:54:41;;;;;;;1.20;0.90;;;9.60;98.00;;;;;;5051314;28;20486;-68
2021/10/22 01:57:11;;;;;;;1.20;1.00;;;9.60;98.00;;;;;;5051769;28;20883;-68
2021/10/22 01:59:39;;;;;;;1.50;1.10;;;9.60;98.00;;;;;;5051512;28;20465;-68
2021/10/22 02:02:06;;;;;;;1.20;1.00;;;9.60;98.00;;;;;;5051490;28;20496;-68
2021/10/22 02:04:33;;;;;;;1.20;1.00;;;9.60;98.00;;;;;;5051360;28;20524;-68
2021/10/22 02:07:01;;;;;;;1.30;1.10;;;9.60;98.00;;;;;;5051344;28;20535;-68
2021/10/22 02:09:28;;;;;;;1.83;1.00;;;9.50;98.00;;;;;;5051365;28;20536;-68
2021/10/22 02:11:55;;;;;;;2.03;1.10;;;9.40;98.00;;;;;;5051351;28;20457;-68
2021/10/22 02:14:23;;;;;;;1.20;0.90;;;9.30;98.00;;;;;;5051174;28;20461;-68
2021/10/22 02:16:50;;;;;;;1.20;1.00;;;9.30;98.00;;;;;;5051322;28;20884;-68
2021/10/22 02:19:17;;;;;;;1.20;1.03;;;9.30;98.00;;;;;;5051236;28;20500;-68
2021/10/22 02:21:45;;;;;;;1.20;1.00;;;9.40;98.00;;;;;;5051085;28;20465;-68
2021/10/22 02:24:12;;;;;;;1.20;0.97;;;9.30;98.00;;;;;;5016147;28;20975;-68
2021/10/22 02:26:39;;;;;;;1.20;1.00;;;9.20;98.00;;;;;;5051033;28;20515;-68
2021/10/22 02:29:06;;;;;;;1.20;0.97;;;9.30;98.00;;;;;;5033106;28;20904;-68
2021/10/22 02:31:35;;;;;;;1.20;1.00;;;9.30;98.00;;;;;;5051031;28;21012;-68
2021/10/22 02:34:02;;;;;;;1.20;1.10;;;9.40;98.00;;;;;;5051008;28;20877;-68
2021/10/22 02:36:29;;;;;;;1.20;1.00;;;9.40;98.00;;;;;;5050921;28;20497;-68
2021/10/22 02:38:56;;;;;;;1.20;1.00;;;9.30;98.00;;;;;;5050915;28;20838;-68
2021/10/22 02:41:23;;;;;;;1.20;1.00;;;9.40;98.00;;;;;;5050857;28;20454;-68
2021/10/22 02:43:50;;;;;;;1.20;0.90;;;9.30;98.00;;;;;;5050707;28;20490;-68
2021/10/22 02:46:17;;;;;;;1.40;1.37;;;9.40;98.00;;;;;;5051021;28;20488;-68
2021/10/22 02:48:48;;;;;;;1.20;1.00;;;9.30;98.00;;;;;;5050461;28;20716;-68
2021/10/22 02:51:17;;;;;;;1.23;1.03;;;9.20;98.00;;;;;;5050832;28;20503;-68
2021/10/22 02:53:44;;;;;;;1.20;0.97;;;9.20;98.00;;;;;;5050740;28;20468;-68
2021/10/22 02:56:11;;;;;;;3.97;1.20;;;9.20;98.00;;;;;;5050875;28;20454;-68
2021/10/22 02:58:38;;;;;;;2.13;1.10;;;8.90;98.00;;;;;;5050668;28;20457;-68
2021/10/22 03:01:05;;;;;;;1.20;0.90;;;8.70;98.00;;;;;;5050418;28;20493;-68
2021/10/22 03:03:32;;;;;;;2.03;1.20;;;8.50;98.00;;;;;;5050717;28;20834;-68
2021/10/22 03:06:01;;;;;;;1.80;1.27;;;8.30;98.00;;;;;;5050733;28;20475;-68
2021/10/22 03:08:28;;;;;;;1.50;1.20;;;8.20;98.00;;;;;;5050865;28;20462;-68
2021/10/22 03:10:55;;;;;;;1.20;1.00;;;8.10;98.00;;;;;;5016920;28;20470;-68
2021/10/22 03:13:22;;;;;;;1.30;1.20;;;8.20;98.00;;;;;;5033069;28;20885;-68
2021/10/22 03:15:49;;;;;;;2.57;1.37;;;8.10;98.00;;;;;;5050644;28;20489;-68
2021/10/22 03:18:17;;;;;;;1.20;0.90;;;8.00;98.00;;;;;;5050731;28;20496;-68
2021/10/22 03:20:44;;;;;;;1.20;1.00;;;8.00;98.00;;;;;;5050609;28;20499;-68
2021/10/22 03:23:12;;;;;;;1.20;0.97;;;7.90;98.00;;;;;;5050447;28;20461;-68
2021/10/22 03:25:40;;;;;;;1.20;0.90;;;7.90;98.00;;;;;;5050483;28;20478;-67
2021/10/22 03:28:07;;;;;;;1.20;1.00;;;7.90;98.00;;;;;;5050240;28;20462;-67
2021/10/22 03:30:34;;;;;;;1.20;0.90;;;7.90;98.00;;;;;;5050569;28;20514;-68
2021/10/22 03:33:02;;;;;;;1.20;1.00;;;8.00;98.00;;;;;;5050441;28;20550;-68
2021/10/22 03:35:30;;;;;;;1.20;1.00;;;8.20;98.00;;;;;;5050515;28;20492;-68
2021/10/22 03:37:57;;;;;;;1.20;0.90;;;8.40;98.00;;;;;;5054221;28;20475;-68
2021/10/22 03:40:26;;;;;;;1.70;1.20;;;8.50;98.00;;;;;;5054054;28;20468;-68
2021/10/22 03:42:54;;;;;;;1.20;1.00;;;8.40;98.00;;;;;;5054038;28;20542;-68
2021/10/22 03:45:25;;;;;;;1.30;1.10;;;8.30;98.00;;;;;;5053932;28;20519;-67
2021/10/22 03:47:53;;;;;;;1.20;0.90;;;8.20;98.00;;;;;;5054042;28;20458;-68
2021/10/22 03:50:20;;;;;;;1.20;1.10;;;8.30;98.00;;;;;;5053928;28;20461;-68
2021/10/22 03:52:47;;;;;;;1.20;0.90;;;8.30;98.00;;;;;;5053940;28;20462;-68
2021/10/22 03:55:15;;;;;;;2.90;1.20;;;8.30;98.00;;;;;;5053748;28;20451;-68
2021/10/22 03:57:44;;;;;;;1.63;1.50;;;8.30;98.00;;;;;;5053881;28;20878;-67
2021/10/22 04:00:11;;;;;;;1.67;1.30;;;8.30;98.00;;;;;;5053769;28;20459;-68
2021/10/22 04:02:38;;;;;;;1.20;1.00;;;8.50;98.00;;;;;;5053843;28;20525;-68
2021/10/22 04:05:07;;;;;;;1.20;1.00;;;8.60;98.00;;;;;;5053613;28;20486;-68
2021/10/22 04:07:35;;;;;;;1.20;0.97;;;8.70;98.00;;;;;;5053634;28;20460;-68
2021/10/22 04:10:03;;;;;;;1.20;1.00;;;8.70;98.00;;;;;;5053686;28;20554;-68
2021/10/22 04:12:31;;;;;;;1.20;1.10;;;8.70;98.00;;;;;;5053697;28;21024;-68
2021/10/22 04:14:59;;;;;;;1.23;1.00;;;8.80;98.00;;;;;;5053549;28;20512;-68
2021/10/22 04:17:26;;;;;;;1.30;1.00;;;8.80;98.00;;;;;;5053617;28;20586;-68
2021/10/22 04:19:53;;;;;;;1.20;1.10;;;8.90;98.00;;;;;;5053356;28;20519;-68
2021/10/22 04:22:20;;;;;;;1.20;1.00;;;8.90;98.00;;;;;;5053461;28;20803;-68
2021/10/22 04:24:47;;;;;;;1.73;1.13;;;8.70;98.00;;;;;;5053302;28;20519;-68
2021/10/22 04:27:14;;;;;;;1.20;1.00;;;8.70;98.00;;;;;;5053367;28;20453;-68
2021/10/22 04:29:41;;;;;;;2.60;1.27;;;8.70;98.00;;;;;;5053321;28;20469;-68
2021/10/22 04:32:10;;;;;;;1.20;1.00;;;8.60;98.00;;;;;;5053468;28;20464;-68
2021/10/22 04:34:40;;;;;;;1.20;1.00;;;8.50;98.00;;;;;;5035655;28;20513;-68
2021/10/22 04:42:32;;;;;;;1.30;1.07;;;7.60;98.00;;;;;;5053067;28;20452;-68
2021/10/22 04:45:00;;;;;;;1.87;1.10;;;7.40;98.00;;;;;;5052857;28;20477;-68
2021/10/22 04:47:29;;;;;;;1.23;1.23;;;7.30;98.00;;;;;;5051884;28;20458;-68
2021/10/22 04:49:57;;;;;;;1.30;1.10;;;7.20;98.00;;;;;;5035197;28;20448;-68
2021/10/22 04:52:24;;;;;;;1.20;1.00;;;7.20;98.00;;;;;;5035042;28;20457;-68
2021/10/22 04:54:51;;;;;;;1.20;1.00;;;7.10;98.00;;;;;;5052687;28;20976;-68
2021/10/22 04:57:18;;;;;;;1.30;1.10;;;7.00;98.00;;;;;;5052599;28;20496;-68
2021/10/22 04:59:45;;;;;;;1.20;1.00;;;7.00;98.00;;;;;;5034989;28;20514;-68
2021/10/22 05:02:11;;;;;;;1.20;1.07;;;7.00;98.00;;;;;;5052626;28;20573;-68
2021/10/22 05:04:40;;;;;;;1.40;1.10;;;6.80;98.00;;;;;;5052464;28;20484;-68
2021/10/22 05:07:07;;;;;;;1.30;1.00;;;6.70;98.00;;;;;;5052629;28;20465;-68
2021/10/22 05:09:34;;;;;;;1.30;1.00;;;6.60;98.00;;;;;;5052384;28;21043;-68
2021/10/22 05:12:05;;;;;;;1.73;1.17;;;6.50;98.00;;;;;;5052350;28;20506;-68
2021/10/22 05:14:32;;;;;;;1.20;1.00;;;6.50;98.00;;;;;;5052248;28;20568;-68
2021/10/22 05:17:00;;;;;;;1.30;1.30;;;6.50;98.00;;;;;;5052526;28;20952;-68
2021/10/22 05:19:27;;;;;;;1.20;1.00;;;6.50;98.00;;;;;;5052483;28;20525;-68
2021/10/22 05:21:56;;;;;;;1.20;1.00;;;6.40;98.00;;;;;;5052521;28;20933;-68
2021/10/22 05:24:23;;;;;;;1.20;1.00;;;6.40;98.00;;;;;;5052181;28;20460;-68
2021/10/22 05:26:50;;;;;;;1.20;1.00;;;6.60;98.00;;;;;;5052325;28;20492;-68
2021/10/22 05:29:17;;;;;;;1.60;1.33;;;6.50;98.00;;;;;;5052974;28;20885;-68
2021/10/22 05:31:44;;;;;;;1.20;1.00;;;6.40;98.00;;;;;;5035073;28;20481;-68
2021/10/22 05:34:12;;;;;;;1.30;1.00;;;6.40;98.00;;;;;;5052942;28;20492;-68
2021/10/22 05:36:39;;;;;;;1.20;1.00;;;6.50;98.00;;;;;;5051258;28;20487;-68
2021/10/22 05:39:07;;;;;;;1.30;1.00;;;6.80;98.00;;;;;;5051929;28;20463;-68
2021/10/22 05:41:34;;;;;;;1.50;1.37;;;6.80;98.00;;;;;;5051928;28;20827;-68
2021/10/22 05:44:02;;;;;;;1.20;1.00;;;6.80;98.00;;;;;;5051964;28;20803;-68
2021/10/22 05:46:29;;;;;;;1.20;1.00;;;6.70;98.00;;;;;;5051825;28;20992;-68
2021/10/22 05:48:56;;;;;;;1.20;1.00;;;6.70;98.00;;;;;;5051908;28;20964;-68
2021/10/22 05:51:23;;;;;;;1.30;1.00;;;6.70;98.00;;;;;;5051360;28;20456;-68
2021/10/22 05:53:51;;;;;;;1.20;1.00;;;6.70;98.00;;;;;;5051712;28;20820;-68
2021/10/22 05:56:20;;;;;;;1.40;1.13;;;6.70;98.00;;;;;;5051863;28;20454;-68
2021/10/22 05:58:47;;;;;;;1.20;1.00;;;6.70;98.00;;;;;;5051373;28;20820;-68
2021/10/22 06:01:14;;;;;;;1.20;1.00;;;6.80;98.00;;;;;;5051601;28;20523;-68
2021/10/22 06:03:41;;;;;;;1.20;1.00;;;6.80;98.00;;;;;;5051317;28;20462;-68
2021/10/22 06:06:08;;;;;;;1.20;1.00;;;6.60;98.00;;;;;;5051476;28;20485;-68
2021/10/22 06:08:36;;;;;;;1.20;1.00;;;6.40;98.00;;;;;;5051314;28;20515;-68
2021/10/22 06:11:09;;;;;;;2.30;1.27;;;6.30;98.00;;;;;;5051547;28;20462;-68
2021/10/22 06:13:38;;;;;;;1.20;1.03;;;6.30;98.00;;;;;;5051331;28;20870;-67
2021/10/22 06:16:08;;;;;;;1.20;1.03;;;6.30;98.00;;;;;;5051272;28;20506;-68
2021/10/22 06:18:38;;;;;;;1.20;0.97;;;6.30;98.00;;;;;;5048623;28;20489;-67
2021/10/22 06:21:08;;;;;;;1.20;1.00;;;6.30;98.00;;;;;;5051248;28;20450;-67
2021/10/22 06:23:54;;;;;;;3.10;2.03;;;6.40;98.00;;;;;;5050775;28;20452;-67
2021/10/22 06:26:21;;;;;;;2.03;1.20;;;6.50;98.00;;;;;;5051038;28;21019;-68
2021/10/22 06:28:50;;;;;;;1.20;1.00;;;6.40;98.00;;;;;;5050801;28;20538;-67
2021/10/22 06:31:17;;;;;;;2.17;1.20;;;6.30;98.00;;;;;;5051225;28;20462;-67
2021/10/22 06:33:44;;;;;;;1.20;0.90;;;6.40;98.00;;;;;;5050913;28;20492;-67
2021/10/22 06:36:11;;;;;;;1.20;1.00;;;6.50;98.00;;;;;;5050967;28;20507;-68
2021/10/22 06:38:38;;;;;;;6.40;1.10;;;6.70;98.00;;;;;;5050862;28;20992;-68
2021/10/22 06:41:08;;;;;;;1.20;1.00;;;6.80;98.00;;;;;;5051026;28;20459;-68
2021/10/22 06:43:35;;;;;;;1.20;0.90;;;6.80;98.00;;;;;;5051009;28;20454;-68
2021/10/22 06:46:04;;;;;;;1.20;1.00;;;6.80;98.00;;;;;;5050685;28;21054;-68
2021/10/22 06:48:32;;;;;;;1.40;1.10;;;6.80;98.00;;;;;;5050499;28;20492;-68
2021/10/22 06:50:59;;;;;;;1.20;1.00;;;6.90;98.00;;;;;;5050885;28;20459;-67
2021/10/22 06:53:26;;;;;;;1.20;1.00;;;6.80;98.00;;;;;;5050754;28;20495;-68
2021/10/22 06:55:53;;;;;;;1.20;1.00;;;6.80;98.00;;;;;;5049474;28;20890;-67
2021/10/22 06:58:20;;;;;;;1.20;1.00;;;6.90;98.00;;;;;;5050804;28;20514;-67
2021/10/22 07:00:49;;;;;;;1.20;0.90;;;6.90;98.00;;;;;;5050665;28;20467;-67
2021/10/22 07:03:20;;;;;;;1.60;1.40;;;6.90;98.00;;;;;;5050857;28;20822;-68
2021/10/22 07:08:31;;;;;;;1.20;1.00;;;7.00;98.00;;;;;;5019549;28;20980;-67
2021/10/22 07:10:58;;;;;;;1.20;1.10;;;6.80;98.00;;;;;;5051859;28;20508;-67
2021/10/22 07:13:25;;;;;;;1.43;1.10;;;6.60;98.00;;;;;;5054800;28;20469;-67
2021/10/22 07:15:53;;;;;;;1.30;1.10;;;6.50;98.00;;;;;;5054840;28;20461;-67
2021/10/22 07:18:21;;;;;;;1.57;1.30;;;6.80;98.00;;;;;;5037137;28;20550;-67
2021/10/22 07:20:49;;;;;;;1.60;1.33;;;6.90;98.00;;;;;;5054544;28;20863;-67
2021/10/22 07:23:16;;;;;;;1.40;1.10;;;6.80;98.00;;;;;;5054707;28;20467;-67
2021/10/22 07:25:44;;;;;;;1.30;1.10;;;6.90;98.00;;;;;;5054385;28;20733;-67
2021/10/22 07:28:13;;;;;;;1.20;1.00;;;6.90;98.00;;;;;;5053766;28;20837;-67
2021/10/22 07:30:43;;;;;;;1.20;0.90;;;7.10;98.00;;;;;;5054342;28;20821;-67
2021/10/22 07:33:10;;;;;;;2.53;1.60;;;7.20;98.00;;;;;;5054410;28;20460;-68
2021/10/22 07:35:41;;;;;;;1.30;1.10;;;7.20;98.00;;;;;;5054193;28;20484;-67
2021/10/22 07:38:11;;;;;;;32.07;1.67;;;7.20;98.00;;;;;;5054145;28;20985;-66
2021/10/22 07:40:38;;;;;;;1.20;1.00;;;7.20;98.00;;;;;;5054026;28;20518;-66
2021/10/22 07:43:06;;;;;;;1.57;1.37;;;7.30;98.00;;;;;;5036365;28;20949;-67
2021/10/22 07:45:34;;;;;;;1.20;1.10;;;7.40;98.00;;;;;;5026324;28;20923;-66
2021/10/22 07:48:01;;;;;;;1.97;1.67;;;7.50;98.00;;;;;;5041895;28;20508;-67
2021/10/22 07:50:31;;;;;;;2.60;2.07;;;7.50;98.00;;;;;;5032122;28;20469;-68
2021/10/22 07:52:59;;;;;;;1.20;1.10;;;7.50;98.00;;;;;;5041129;28;20460;-67
2021/10/22 07:55:30;;;;;;;1.30;1.10;;;7.70;98.00;;;;;;5047012;28;20539;-67
2021/10/22 07:57:57;;;;;;;1.50;1.20;;;7.90;98.00;;;;;;5032759;28;20472;-66
2021/10/22 08:00:25;;;;;;;1.20;1.10;;;8.00;98.00;;;;;;5035256;28;20457;-67
2021/10/22 08:02:52;;;;;;;2.70;1.40;;;8.20;98.00;;;;;;5047704;28;20465;-67
2021/10/22 08:05:23;;;;;;;1.47;1.30;;;8.30;98.00;;;;;;5040780;28;20457;-66
2021/10/22 08:07:50;;;;;;;2.30;1.40;;;8.30;98.00;;;;;;5040914;28;20450;-67
2021/10/22 08:10:19;;;;;;;1.67;1.50;;;8.40;98.00;;;;;;5043653;28;21042;-67
2021/10/22 08:12:46;;;;;;;1.20;1.00;;;8.40;98.00;;;;;;5032805;28;20494;-67
2021/10/22 08:15:14;;;;;;;2.13;1.13;;;8.40;98.00;;;;;;5032758;28;20464;-67
2021/10/22 08:17:41;;;;;;;1.20;1.00;;;8.40;98.00;;;;;;5041261;28;20516;-67
2021/10/22 08:20:11;;;;;;;1.80;1.27;;;8.50;98.00;;;;;;5047343;28;20454;-68
2021/10/22 08:22:38;;;;;;;1.40;1.20;;;8.50;98.00;;;;;;5040157;28;20825;-70
2021/10/22 08:25:08;;;;;;;1.80;1.50;;;8.50;98.00;;;;;;5040065;28;20461;-70
2021/10/22 08:27:39;;;;;;;1.87;1.53;;;8.70;98.00;;;;;;5031710;28;20548;-68
2021/10/22 08:30:09;;;;;;;1.20;1.13;;;8.80;98.00;;;;;;5034711;28;20557;-69
2021/10/22 08:32:36;;;;;;;1.20;1.00;;;8.70;98.00;;;;;;5047558;28;20455;-68
2021/10/22 08:35:04;;;;;;;1.20;1.00;;;8.60;98.00;;;;;;5041044;28;20459;-67
2021/10/22 08:37:32;;;;;;;1.20;0.90;;;8.60;98.00;;;;;;5023627;28;20537;-67
2021/10/22 08:39:59;;;;;;;1.20;1.00;;;8.80;98.00;;;;;;5047348;28;20521;-68
2021/10/22 08:42:29;;;;;;;1.57;1.30;;;8.90;98.00;;;;;;5034035;28;20491;-69
2021/10/22 08:44:57;;;;;;;1.40;1.10;;;9.10;98.00;;;;;;5032639;28;20567;-67
2021/10/22 08:47:26;;;;;;;1.20;1.00;;;9.20;98.00;;;;;;5040366;28;20495;-68
2021/10/22 08:49:53;;;;;;;1.60;1.37;;;9.20;98.00;;;;;;5036530;28;20457;-68
2021/10/22 08:52:20;;;;;;;1.40;1.20;;;9.20;98.00;;;;;;5033604;28;20998;-69
2021/10/22 08:54:47;;;;;;;1.20;1.00;;;9.30;98.00;;;;;;5047021;28;20518;-69
2021/10/22 08:57:14;;;;;;;1.20;1.00;;;9.40;98.00;;;;;;5043041;28;20454;-68
2021/10/22 08:59:41;;;;;;;1.60;1.10;;;9.50;98.00;;;;;;5040336;28;20493;-69
2021/10/22 09:02:22;;;;;;;1.20;1.00;;;9.70;98.00;;;;;;5046354;28;20519;-68
2021/10/22 09:04:50;;;;;;;1.20;1.00;;;9.90;98.00;;;;;;5040909;28;20520;-69
2021/10/22 09:07:19;;;;;;;1.30;1.23;;;9.90;98.00;;;;;;5040397;28;20583;-68
2021/10/22 09:09:48;;;;;;;1.20;1.00;;;9.80;98.00;;;;;;5039606;28;20978;-68
2021/10/22 09:12:15;;;;;;;1.20;1.10;;;9.70;98.00;;;;;;5040198;28;20456;-68
2021/10/22 09:15:00;;;;;;;1.90;1.20;;;9.70;98.00;;;;;;5048276;28;20541;-69
2021/10/22 09:17:38;;;;;;;1.20;0.90;;;9.80;98.00;;;;;;5039314;28;20883;-67
2021/10/22 09:20:07;;;;;;;1.20;1.00;;;9.80;98.00;;;;;;5041318;28;20522;-66
2021/10/22 09:22:35;;;;;;;1.73;1.10;;;9.80;98.00;;;;;;5039848;28;20788;-68
2021/10/22 09:25:05;;;;;;;1.20;1.00;;;9.90;98.00;;;;;;5039593;28;20884;-68
2021/10/22 09:27:35;;;;;;;1.30;1.30;;;10.00;98.00;;;;;;5048175;28;20998;-68
2021/10/22 09:30:03;;;;;;;1.40;1.20;;;10.20;98.00;;;;;;5048017;28;20477;-68
2021/10/22 09:32:31;;;;;;;2.27;1.57;;;10.30;98.00;;;;;;5037352;28;20462;-67
2021/10/22 09:34:59;;;;;;;1.20;1.00;;;10.40;98.00;;;;;;5030864;28;20464;-67
2021/10/22 09:37:37;;;;;;;1.20;1.00;;;10.50;98.00;;;;;;5032718;28;20532;-68
2021/10/22 09:40:06;;;;;;;1.20;1.00;;;10.50;98.00;;;;;;5047435;28;20455;-66
2021/10/22 09:42:36;;;;;;;1.93;1.00;;;10.60;98.00;;;;;;5035122;28;20484;-66
2021/10/22 09:45:05;;;;;;;1.70;1.10;;;10.60;98.00;;;;;;5039213;28;20450;-66
2021/10/22 09:47:35;;;;;;;1.87;1.00;;;10.70;98.00;;;;;;5043135;28;20491;-65
2021/10/22 09:50:09;;;;;;;1.20;1.00;;;10.70;98.00;;;;;;5041751;28;20536;-67
2021/10/22 09:52:36;;;;;;;1.20;1.00;;;10.80;98.00;;;;;;5039802;28;20491;-67
2021/10/22 09:55:12;;;;;;;1.37;1.10;;;10.90;98.00;;;;;;5039262;28;20481;-68
2021/10/22 09:57:40;;;;;;;1.20;1.10;;;10.90;98.00;;;;;;5036467;28;20460;-66
2021/10/22 10:00:09;;;;;;;1.30;1.30;;;10.70;98.00;;;;;;5021297;28;20489;-66
2021/10/22 10:02:37;;;;;;;2.43;1.10;;;11.00;98.00;;;;;;5041023;28;20990;-66
2021/10/22 10:05:08;;;;;;;1.30;1.20;;;11.10;98.00;;;;;;5030623;28;20881;-66
2021/10/22 10:07:38;;;;;;;1.20;1.00;;;11.00;98.00;;;;;;5044818;28;20498;-66
2021/10/22 10:10:06;;;;;;;1.70;1.20;;;11.00;98.00;;;;;;5047180;28;20462;-66
2021/10/22 10:12:35;;;;;;;1.20;0.93;;;11.00;98.00;;;;;;5029423;28;20514;-66
2021/10/22 10:15:04;;;;;;;1.20;1.00;;;11.10;98.00;;;;;;5046662;28;20453;-67
2021/10/22 10:17:35;;;;;;;1.20;1.00;;;10.90;98.00;;;;;;5040698;28;20466;-67
2021/10/22 10:20:18;;;;;;;1.20;1.00;;;11.00;98.00;;;;;;5038564;28;20465;-66
2021/10/22 10:22:47;;;;;;;1.20;1.10;;;11.20;98.00;;;;;;5039429;28;20446;-67
2021/10/22 10:25:18;;;;;;;2.20;1.20;;;11.10;98.00;;;;;;5038572;28;20497;-67
2021/10/22 10:27:47;;;;;;;1.20;1.00;;;11.20;98.00;;;;;;5030856;28;20903;-67
2021/10/22 10:30:16;;;;;;;1.20;0.90;;;11.30;98.00;;;;;;5030233;28;20462;-66
2021/10/22 10:32:43;;;;;;;1.30;1.00;;;11.30;98.00;;;;;;5038483;28;20492;-66
2021/10/22 10:35:14;;;;;;;1.20;1.00;;;11.30;98.00;;;;;;5030351;28;20539;-68
2021/10/22 10:37:42;;;;;;;1.70;1.20;;;11.30;98.00;;;;;;5029212;28;20551;-68
2021/10/22 10:40:22;;;;;;;1.20;1.00;;;11.50;96.80;;;;;;5038127;28;20964;-67
2021/10/22 10:42:51;;;;;;;1.47;1.20;;;11.60;97.10;;;;;;5032061;28;20510;-66
2021/10/22 10:45:42;;;;;;;1.40;1.07;;;11.80;96.30;;;;;;5037389;28;20510;-66
2021/10/22 10:48:13;;;;;;;1.20;1.00;;;12.10;95.90;;;;;;5038066;28;20497;-66
2021/10/22 10:50:47;;;;;;;1.20;1.00;;;12.20;94.10;;;;;;5037415;28;20545;-66
2021/10/22 10:53:17;;;;;;;1.20;1.00;;;12.30;93.20;;;;;;5046718;28;20454;-66
2021/10/22 10:55:46;;;;;;;1.20;1.00;;;12.30;94.70;;;;;;5040984;28;20470;-66
2021/10/22 10:58:18;;;;;;;1.20;1.10;;;12.40;94.00;;;;;;5030779;28;20451;-66
2021/10/22 11:00:48;;;;;;;1.20;1.10;;;12.50;93.30;;;;;;5019432;28;20465;-66
2021/10/22 11:03:20;;;;;;;1.20;1.00;;;12.60;88.90;;;;;;5031570;28;20451;-66
2021/10/22 11:06:14;;;;;;;1.20;1.00;;;12.80;89.80;;;;;;5045412;28;20466;-66
2021/10/22 11:08:51;;;;;;;1.20;1.00;;;12.70;85.70;;;;;;5037806;28;20461;-67
2021/10/22 11:11:28;;;;;;;1.70;1.10;;;12.90;88.00;;;;;;5051547;28;20466;-68
2021/10/22 11:14:09;;;;;;;1.20;1.00;;;13.20;87.30;;;;;;5051348;28;20538;-66
2021/10/22 11:16:40;;;;;;;1.30;1.10;;;13.50;87.40;;;;;;5051480;28;20523;-67
2021/10/22 11:19:08;;;;;;;1.30;1.07;;;13.70;93.40;;;;;;5051138;28;20454;-66
2021/10/22 11:21:39;;;;;;;1.20;1.00;;;14.10;84.70;;;;;;5051124;28;20496;-67
2021/10/22 11:24:09;;;;;;;1.50;1.20;;;14.20;82.80;;;;;;5051359;28;20851;-66
2021/10/22 11:26:36;;;;;;;1.20;1.00;;;13.80;83.50;;;;;;5051076;28;20516;-67
2021/10/22 11:29:17;;;;;;;5.27;1.53;;;13.80;84.40;;;;;;5050737;28;20483;-67
2021/10/22 11:31:46;;;;;;;1.20;1.00;;;14.00;83.40;;;;;;5051082;28;20471;-68
2021/10/22 11:34:15;;;;;;;1.20;1.10;;;14.30;84.50;;;;;;5051013;28;21277;-67
2021/10/22 11:36:52;;;;;;;1.20;1.10;;;14.50;82.60;;;;;;5050883;28;20515;-66
2021/10/22 11:39:21;;;;;;;1.20;1.00;;;14.20;81.80;;;;;;5051008;28;20453;-68
2021/10/22 11:42:04;;;;;;;1.50;1.30;;;13.90;81.40;;;;;;5051231;28;20670;-67
2021/10/22 11:44:32;;;;;;;1.20;1.10;;;13.60;81.00;;;;;;5048651;28;20866;-67
2021/10/22 11:46:59;;;;;;;1.20;1.00;;;13.60;81.60;;;;;;5051028;28;20483;-67
2021/10/22 11:49:30;;;;;;;1.20;1.00;;;13.20;82.00;;;;;;5033354;28;20476;-68
2021/10/22 11:52:01;;;;;;;1.20;1.10;;;13.10;80.20;;;;;;5051035;28;20471;-67
2021/10/22 11:54:34;;;;;;;1.87;1.10;;;13.20;80.90;;;;;;5050942;28;20485;-67
2021/10/22 11:57:04;;;;;;;1.20;1.03;;;13.20;83.50;;;;;;5051882;28;20794;-68
2021/10/22 11:59:33;;;;;;;1.30;1.00;;;12.70;79.40;;;;;;5054478;28;20515;-67
2021/10/22 12:02:07;;;;;;;1.20;1.10;;;12.50;80.80;;;;;;5054710;28;20547;-67
2021/10/22 12:04:35;;;;;;;1.20;1.00;;;12.20;78.80;;;;;;5054483;28;20540;-67
2021/10/22 12:07:05;;;;;;;1.30;1.10;;;12.40;81.70;;;;;;5054633;28;20559;-67
2021/10/22 12:09:37;;;;;;;1.40;1.20;;;12.70;81.60;;;;;;5054493;28;20458;-66
2021/10/22 12:12:13;;;;;;;1.20;1.10;;;12.90;79.70;;;;;;5054595;28;20473;-67
2021/10/22 12:14:43;;;;;;;1.93;1.20;;;12.90;79.80;;;;;;5054493;28;20481;-66
2021/10/22 12:17:12;;;;;;;1.20;1.00;;;13.10;79.00;;;;;;5054357;28;20520;-66
2021/10/22 12:19:42;;;;;;;1.20;1.00;;;13.10;79.00;;;;;;5054307;28;20461;-66
2021/10/22 12:22:11;;;;;;;1.20;0.90;;;13.00;79.70;;;;;;5054269;28;20498;-66
2021/10/22 12:24:46;;;;;;;1.20;1.10;;;13.10;80.60;;;;;;5054205;28;20548;-67
2021/10/22 12:27:15;;;;;;;1.20;1.00;;;13.10;79.10;;;;;;5054261;28;20489;-67
2021/10/22 12:30:04;;;;;;;1.87;1.20;;;13.20;78.10;;;;;;5053896;28;20465;-67
2021/10/22 12:32:40;;;;;;;1.20;1.00;;;12.90;79.60;;;;;;5054230;28;20808;-67
2021/10/22 12:35:18;;;;;;;1.20;1.00;;;12.70;81.00;;;;;;5054009;28;20458;-66
2021/10/22 12:37:50;;;;;;;1.20;1.00;;;12.90;81.20;;;;;;5054139;28;20451;-67
2021/10/22 12:40:25;;;;;;;1.20;1.00;;;13.20;79.80;;;;;;5053753;28;20520;-67
2021/10/22 12:43:23;;;;;;;1.20;1.00;;;13.30;80.20;;;;;;5053705;28;20492;-67
2021/10/22 12:45:52;;;;;;;1.20;1.00;;;13.40;80.60;;;;;;5053626;28;20511;-66
2021/10/22 12:48:23;;;;;;;1.20;1.10;;;13.30;80.70;;;;;;5053558;28;20551;-68
2021/10/22 12:50:50;;;;;;;1.40;1.10;;;13.20;79.70;;;;;;5053480;28;20464;-67
2021/10/22 12:53:28;;;;;;;1.20;1.00;;;13.30;81.10;;;;;;5053531;28;21088;-67
2021/10/22 12:56:12;;;;;;;1.20;1.00;;;13.50;79.50;;;;;;5053481;28;20449;-67
2021/10/22 12:58:40;;;;;;;1.20;1.10;;;13.70;80.10;;;;;;5053452;28;20455;-67
2021/10/22 13:01:16;;;;;;;1.20;1.10;;;13.70;79.50;;;;;;5053427;28;20455;-68
2021/10/22 13:03:46;;;;;;;1.20;1.00;;;13.50;76.10;;;;;;5053423;28;20512;-67
2021/10/22 13:06:25;;;;;;;1.77;1.63;;;13.40;76.30;;;;;;5053258;28;20465;-66
2021/10/22 13:09:01;;;;;;;1.20;1.00;;;13.30;77.20;;;;;;5052265;28;20545;-66
2021/10/22 13:11:36;;;;;;;1.20;1.00;;;13.60;79.40;;;;;;5053268;28;20447;-68